Bradford Regional Airport
KBFD : rendu visible

Aérodrome :











RETROUVEZ-NOUS SUR...

 
LOGIN :

S'inscrire | Disclaimer

   EN    FR    IT 

 









Légende :    VFR   VFR Marginal   IFR   IFR Intensif   IFR Très Intensif
Visi : 
Plafond : 
>= 8 km
>= 3000ft
5 à 8 km
1000 à 3000 ft
1500m à 5 km
500 à 1000 ft
800 à 1500m
200 à 500 ft
< 800m
< 200 ft
Symboles :   Orages  Brouillard  Fortes neiges  Fortes précipitations  Vent > 20 kt






- Altitude de l'aérodrome : 2143 ft
- Code IATA : BFD


KBFD - Bradford Regional

DERNIER METAR :
  • 200353Z AUTO 00000KT 10SM FEW021 FEW026 OVC035 01/M01 A2987 RMK AO2 SLP131 T00111011

METARs EXPIRÉS :
  • 200343Z AUTO 00000KT 10SM FEW021 SCT026 OVC033 01/M01 A2987 RMK AO2 T00111011
  • 200253Z AUTO 00000KT 10SM OVC017 01/M01 A2987 RMK AO2 SLP131 T00111011 51007
  • 200219Z AUTO 00000KT 10SM BKN017 OVC031 01/M01 A2987 RMK AO2 T00111011
  • 200153Z AUTO 00000KT 10SM OVC031 01/M01 A2986 RMK AO2 SLP129 T00111011

TAF KBFD
Valide du 20 à 03h jusqu'au 21 à 00h UTC


200327Z 2003/2024 00000KT P6SM OVC018
FM200600 VRB03KT 6SM BR OVC007
FM200900 32003KT 3SM BR OVC004
FM201200 32004KT 6SM BR OVC010
FM201800 31008KT P6SM OVC015



MET'MAP, la Météo Aéronautique d'un coup d'oeil ! - Copyright ORBIFLY Décembre 2007 - Disclaimer

ORBIFLY MET'MAP TEAM :

Programmation & Développement : Alexandra Zaïnal
Conception & Développement : Baudouin d'Aumeries
Co-Programmation & Développement : Marc-Olivier Méhu
Soutien technique & logistique : Manuel Goepfert

Contact : metmap@orbifly.com




SOURCES & CREDITS :

   NOAA       Earth
Advisory